createdAt,value
2022-11-17T00:02:26.935Z,26.63
2022-11-17T00:04:59.608Z,29.45
2022-11-17T00:07:32.381Z,28.50
2022-11-17T00:10:06.003Z,23.85
2022-11-17T00:12:54.265Z,28.42
2022-11-17T00:15:26.797Z,28.40
2022-11-17T00:18:15.644Z,29.42
2022-11-17T00:21:04.118Z,34.63
2022-11-17T00:23:53.558Z,29.52
2022-11-17T00:26:29.148Z,27.55
2022-11-17T00:29:05.207Z,25.50
2022-11-17T00:31:53.681Z,21.65
2022-11-17T00:34:26.364Z,26.20
2022-11-17T00:36:58.947Z,27.17
2022-11-17T00:39:31.743Z,26.02
2022-11-17T00:42:04.826Z,30.48
2022-11-17T00:44:37.536Z,30.60
2022-11-17T00:47:10.095Z,23.10
2022-11-17T00:49:42.672Z,23.23
2022-11-17T00:52:15.414Z,24.00
2022-11-17T00:54:48.160Z,25.30
2022-11-17T00:57:20.817Z,25.83
2022-11-17T00:59:53.404Z,26.02
2022-11-17T01:02:26.076Z,22.17
2022-11-17T01:04:58.685Z,24.98
2022-11-17T01:07:31.610Z,21.50
2022-11-17T01:10:04.770Z,21.02
2022-11-17T01:12:37.485Z,20.58
2022-11-17T01:15:10.812Z,24.52
2022-11-17T01:17:43.634Z,18.48
2022-11-17T01:20:16.315Z,22.30
2022-11-17T01:22:49.139Z,22.58
2022-11-17T01:25:21.642Z,22.40
2022-11-17T01:27:54.309Z,21.23
2022-11-17T01:30:26.846Z,21.90
2022-11-17T01:32:59.451Z,21.13
2022-11-17T01:35:34.802Z,18.67
2022-11-17T01:40:39.990Z,18.35
2022-11-17T01:43:12.542Z,21.52
2022-11-17T01:45:45.662Z,17.30
2022-11-17T01:48:18.329Z,16.63
2022-11-17T01:50:52.202Z,18.63
2022-11-17T01:53:26.593Z,14.98
2022-11-17T01:56:05.572Z,13.85
2022-11-17T01:58:44.373Z,13.18
2022-11-17T02:01:17.122Z,12.20
2022-11-17T02:03:51.858Z,13.65
2022-11-17T02:06:33.725Z,13.60
2022-11-17T02:09:06.609Z,11.50
2022-11-17T02:11:39.373Z,12.73
2022-11-17T02:14:12.102Z,14.13
2022-11-17T02:16:44.931Z,14.60
2022-11-17T02:19:17.821Z,13.02
2022-11-17T02:21:57.508Z,10.88
2022-11-17T02:24:45.675Z,12.00
2022-11-17T02:27:49.698Z,9.07
2022-11-17T02:30:23.844Z,8.57
2022-11-17T02:33:17.313Z,11.38
2022-11-17T02:35:58.755Z,11.13
2022-11-17T02:38:54.788Z,9.93
2022-11-17T02:44:08.559Z,9.45
2022-11-17T02:46:55.756Z,9.55
2022-11-17T02:49:36.078Z,9.00
2022-11-17T02:52:09.710Z,8.93
2022-11-17T02:54:42.443Z,10.05
2022-11-17T02:57:32.260Z,7.70
2022-11-17T03:00:10.302Z,8.80
2022-11-17T03:02:58.684Z,10.15
2022-11-17T03:05:40.723Z,10.32
2022-11-17T03:08:14.044Z,7.88
2022-11-17T03:11:03.726Z,9.00
2022-11-17T03:13:53.651Z,7.50
2022-11-17T03:16:32.738Z,9.40
2022-11-17T03:19:14.801Z,9.52
2022-11-17T03:22:18.510Z,8.50
2022-11-17T03:24:58.453Z,10.38
2022-11-17T03:27:37.572Z,9.25
2022-11-17T03:30:12.238Z,10.23
2022-11-17T03:32:50.726Z,12.05
2022-11-17T03:35:29.218Z,10.73
2022-11-17T03:38:08.527Z,10.95
2022-11-17T03:40:47.049Z,10.40
2022-11-17T03:43:21.982Z,9.57
2022-11-17T03:45:59.352Z,11.95
2022-11-17T03:48:52.486Z,13.18
2022-11-17T03:51:28.244Z,11.85
2022-11-17T03:54:01.643Z,14.18
2022-11-17T03:56:50.902Z,16.40
2022-11-17T03:59:30.009Z,10.82
2022-11-17T04:02:02.998Z,13.57
2022-11-17T04:04:50.790Z,13.13
2022-11-17T04:07:23.458Z,19.08
2022-11-17T04:09:56.205Z,13.27
2022-11-17T04:12:44.796Z,17.10
2022-11-17T04:15:33.192Z,14.00
2022-11-17T04:18:06.830Z,12.25
2022-11-17T04:20:39.532Z,18.13
2022-11-17T04:23:15.049Z,16.80
2022-11-17T04:26:06.072Z,19.20
2022-11-17T04:28:42.108Z,16.63
2022-11-17T04:31:18.036Z,14.95
2022-11-17T04:33:54.823Z,14.32
2022-11-17T04:36:34.771Z,17.60
2022-11-17T04:39:07.372Z,16.42
2022-11-17T04:41:55.909Z,18.70
2022-11-17T04:44:31.264Z,18.52
2022-11-17T04:47:04.651Z,19.48
2022-11-17T04:49:37.272Z,20.67
2022-11-17T04:52:09.787Z,15.93
2022-11-17T04:54:42.509Z,17.35
2022-11-17T04:57:15.081Z,19.15
2022-11-17T04:59:47.625Z,19.20
2022-11-17T05:02:20.244Z,16.05
2022-11-17T05:05:00.678Z,20.10
2022-11-17T05:07:33.467Z,18.45
2022-11-17T05:10:06.991Z,20.20
2022-11-17T05:12:55.037Z,18.77
2022-11-17T05:15:43.378Z,18.20
2022-11-17T05:18:15.928Z,20.17
2022-11-17T05:20:48.539Z,20.58
2022-11-17T05:23:36.758Z,41.05
2022-11-17T05:26:09.532Z,21.90
2022-11-17T05:28:42.654Z,20.02
2022-11-17T05:31:16.277Z,20.08
2022-11-17T05:33:48.954Z,23.80
2022-11-17T05:36:23.542Z,23.38
2022-11-17T05:38:56.751Z,24.30
2022-11-17T05:41:29.740Z,22.42
2022-11-17T05:44:02.485Z,23.00
2022-11-17T05:46:35.075Z,22.20
2022-11-17T05:49:07.794Z,22.27
2022-11-17T05:51:40.416Z,21.08
2022-11-17T05:54:13.094Z,24.83
2022-11-17T05:57:04.106Z,21.90
2022-11-17T05:59:46.969Z,21.00
2022-11-17T06:02:25.493Z,25.55
2022-11-17T06:04:58.220Z,22.98
2022-11-17T06:07:31.152Z,24.40
2022-11-17T06:10:04.188Z,22.27
2022-11-17T06:12:36.787Z,22.50
2022-11-17T06:15:10.263Z,21.63
2022-11-17T06:17:51.974Z,23.33
2022-11-17T06:20:30.144Z,27.52
2022-11-17T06:23:06.737Z,24.08
2022-11-17T06:25:40.221Z,27.27
2022-11-17T06:28:17.585Z,30.02
2022-11-17T06:30:50.895Z,23.83
2022-11-17T06:33:24.528Z,26.88
2022-11-17T06:36:00.528Z,28.08
2022-11-17T06:38:36.181Z,27.15
2022-11-17T06:41:11.868Z,29.63
2022-11-17T06:43:45.046Z,28.60
2022-11-17T06:46:20.732Z,28.45
2022-11-17T06:48:55.383Z,29.02
2022-11-17T06:51:29.377Z,26.85
2022-11-17T06:54:02.306Z,29.60
2022-11-17T06:56:35.929Z,31.20
2022-11-17T06:59:08.952Z,33.13
2022-11-17T07:01:41.512Z,33.88
2022-11-17T07:04:14.345Z,29.15
2022-11-17T07:06:47.218Z,32.70
2022-11-17T07:09:20.565Z,32.47
2022-11-17T07:11:53.415Z,33.08
2022-11-17T07:14:26.140Z,40.88
2022-11-17T07:16:58.716Z,39.40
2022-11-17T07:19:31.386Z,30.83
2022-11-17T07:22:05.175Z,33.47
2022-11-17T07:24:37.855Z,51.95
2022-11-17T07:27:10.637Z,33.78
2022-11-17T07:29:43.436Z,32.88
2022-11-17T07:32:16.300Z,32.60
2022-11-17T07:34:49.335Z,36.80
2022-11-17T07:37:22.228Z,54.70
2022-11-17T07:39:55.191Z,54.17
2022-11-17T07:42:27.930Z,45.67
2022-11-17T07:45:00.810Z,40.30
2022-11-17T07:47:33.478Z,37.30
2022-11-17T07:50:06.956Z,36.78
2022-11-17T07:52:41.600Z,35.22
2022-11-17T07:55:14.743Z,28.42
2022-11-17T07:57:47.479Z,66.63
2022-11-17T08:00:20.506Z,32.30
2022-11-17T08:02:53.327Z,35.22
2022-11-17T08:05:30.931Z,28.00
2022-11-17T08:08:04.077Z,30.88
2022-11-17T08:10:37.354Z,26.20
2022-11-17T08:13:11.773Z,24.75
2022-11-17T08:15:44.704Z,25.30
2022-11-17T08:18:17.770Z,22.10
2022-11-17T08:20:50.526Z,24.13
2022-11-17T08:23:23.148Z,23.48
2022-11-17T08:25:56.110Z,23.73
2022-11-17T08:28:28.825Z,22.77
2022-11-17T08:31:04.133Z,25.85
2022-11-17T08:33:36.683Z,22.92
2022-11-17T08:36:11.279Z,25.55
2022-11-17T08:38:44.685Z,27.42
2022-11-17T08:41:17.486Z,23.42
2022-11-17T08:43:52.201Z,23.23
2022-11-17T08:46:27.319Z,19.75
2022-11-17T08:49:01.568Z,23.60
2022-11-17T08:51:34.352Z,21.20
2022-11-17T08:54:07.181Z,20.55
2022-11-17T08:56:40.107Z,19.15
2022-11-17T08:59:14.564Z,18.77
2022-11-17T09:01:47.292Z,21.33
2022-11-17T09:04:20.224Z,20.15
2022-11-17T09:06:53.201Z,22.98
2022-11-17T09:09:26.235Z,19.75
2022-11-17T09:11:59.872Z,19.92
2022-11-17T09:14:32.722Z,21.98
2022-11-17T09:17:05.464Z,30.27
2022-11-17T09:19:38.180Z,21.35
2022-11-17T09:22:10.937Z,19.67
2022-11-17T09:24:43.655Z,41.25
2022-11-17T09:27:16.531Z,22.52
2022-11-17T09:29:49.246Z,35.47
2022-11-17T09:32:21.937Z,21.05
2022-11-17T09:34:54.852Z,21.38
2022-11-17T09:37:28.855Z,19.77
2022-11-17T09:40:01.629Z,21.88
2022-11-17T09:42:41.405Z,25.48
2022-11-17T09:45:23.969Z,21.63
2022-11-17T09:48:38.770Z,20.58
2022-11-17T09:51:08.655Z,20.35
2022-11-17T09:53:49.108Z,23.65
2022-11-17T09:56:22.098Z,20.50
2022-11-17T09:59:01.885Z,23.63
2022-11-17T10:01:34.858Z,26.23
2022-11-17T10:04:14.064Z,28.88
2022-11-17T10:06:50.180Z,29.40
2022-11-17T10:09:42.035Z,24.75
2022-11-17T10:12:18.436Z,25.38
2022-11-17T10:14:53.166Z,24.55
2022-11-17T10:17:26.450Z,24.63
2022-11-17T10:20:01.270Z,30.25
2022-11-17T10:22:36.641Z,29.85
2022-11-17T10:27:57.641Z,27.67
2022-11-17T10:30:31.080Z,26.17
2022-11-17T10:33:04.378Z,28.08
2022-11-17T10:35:37.210Z,28.63
2022-11-17T10:38:22.074Z,29.58
2022-11-17T10:40:55.844Z,29.50
2022-11-17T10:43:33.316Z,28.23
2022-11-17T10:46:15.265Z,26.10
2022-11-17T10:49:01.042Z,29.52
2022-11-17T10:51:35.833Z,28.30
2022-11-17T10:54:24.113Z,26.73
2022-11-17T10:57:00.476Z,24.75
2022-11-17T10:59:43.997Z,24.80
2022-11-17T11:02:35.472Z,23.27
2022-11-17T11:05:15.595Z,25.27
2022-11-17T11:07:48.642Z,27.52
2022-11-17T11:10:37.255Z,33.50
2022-11-17T11:13:26.890Z,30.75
2022-11-17T11:16:01.964Z,30.27
2022-11-17T11:18:35.420Z,32.20
2022-11-17T11:21:21.206Z,28.65
2022-11-17T11:24:10.710Z,29.42
2022-11-17T11:26:57.661Z,34.88
2022-11-17T11:29:56.874Z,28.73
2022-11-17T11:32:54.609Z,30.02
2022-11-17T11:35:46.425Z,30.42
2022-11-17T11:38:35.854Z,31.88
2022-11-17T11:41:25.837Z,28.65
2022-11-17T11:44:20.103Z,31.10
2022-11-17T11:47:03.914Z,29.63
2022-11-17T11:50:06.396Z,29.75
2022-11-17T11:52:45.493Z,30.63
2022-11-17T11:55:23.512Z,29.50
2022-11-17T11:58:06.588Z,30.23
2022-11-17T12:00:42.276Z,30.05
2022-11-17T12:03:21.720Z,27.38
2022-11-17T12:06:27.217Z,34.95
2022-11-17T12:09:18.136Z,28.35
2022-11-17T12:12:01.139Z,27.48
2022-11-17T12:14:38.452Z,26.50
2022-11-17T12:17:24.463Z,28.65
2022-11-17T12:20:04.601Z,23.10
2022-11-17T12:22:54.892Z,26.20
2022-11-17T12:25:31.449Z,27.20
2022-11-17T12:28:29.816Z,30.63
2022-11-17T12:31:10.192Z,25.40
2022-11-17T12:33:53.045Z,28.33
2022-11-17T12:36:33.986Z,25.48
2022-11-17T12:39:29.314Z,23.80
2022-11-17T12:42:06.733Z,27.40
2022-11-17T12:44:50.965Z,24.55
2022-11-17T12:47:27.557Z,30.13
2022-11-17T12:50:16.911Z,32.33
2022-11-17T12:53:20.905Z,34.60
2022-11-17T12:56:10.404Z,32.20
2022-11-17T12:58:59.236Z,29.10
2022-11-17T13:01:55.033Z,37.90
2022-11-17T13:04:38.113Z,35.22
2022-11-17T13:07:21.526Z,29.10
2022-11-17T13:09:57.617Z,31.80
2022-11-17T13:12:33.550Z,37.20
2022-11-17T13:15:07.535Z,35.15
2022-11-17T13:17:43.495Z,29.25
2022-11-17T13:20:28.196Z,30.20
2022-11-17T13:23:07.343Z,31.05
2022-11-17T13:25:40.096Z,30.42
2022-11-17T13:28:29.594Z,35.28
2022-11-17T13:31:02.741Z,32.25
2022-11-17T13:33:40.163Z,34.45
2022-11-17T13:36:20.881Z,33.22
2022-11-17T13:38:57.586Z,29.42
2022-11-17T13:41:38.303Z,29.05
2022-11-17T13:44:15.731Z,33.58
2022-11-17T13:46:48.703Z,25.60
2022-11-17T13:49:38.437Z,31.23
2022-11-17T13:52:35.257Z,29.55
2022-11-17T13:55:20.341Z,30.55
2022-11-17T13:58:00.592Z,31.38
2022-11-17T14:00:35.066Z,33.22
2022-11-17T14:03:29.290Z,33.33
2022-11-17T14:06:04.084Z,36.88
2022-11-17T14:08:38.160Z,37.13
2022-11-17T14:11:11.451Z,39.47
2022-11-17T14:13:50.130Z,38.10
2022-11-17T14:16:29.371Z,39.47
2022-11-17T14:19:07.097Z,40.08
2022-11-17T14:22:21.406Z,40.35
2022-11-17T14:24:56.356Z,38.88
2022-11-17T14:27:30.793Z,34.05
2022-11-17T14:30:05.788Z,36.23
2022-11-17T14:32:42.791Z,37.75
2022-11-17T14:37:55.542Z,40.05
2022-11-17T14:40:29.636Z,41.70
2022-11-17T14:43:03.178Z,38.67
2022-11-17T14:45:36.021Z,38.38
2022-11-17T14:48:13.523Z,40.67
2022-11-17T14:51:00.323Z,40.63
2022-11-17T14:53:33.576Z,45.05
2022-11-17T14:56:09.505Z,40.88
2022-11-17T14:58:42.477Z,45.72
2022-11-17T15:01:25.095Z,42.88
2022-11-17T15:04:15.461Z,41.55
2022-11-17T15:06:54.395Z,48.65
2022-11-17T15:09:27.169Z,47.17
2022-11-17T15:12:00.456Z,50.30
2022-11-17T15:14:33.284Z,49.80
2022-11-17T15:17:11.280Z,48.22
2022-11-17T15:19:47.447Z,44.88
2022-11-17T15:22:21.062Z,48.95
2022-11-17T15:24:53.904Z,48.33
2022-11-17T15:27:26.858Z,48.63
2022-11-17T15:30:00.192Z,57.13
2022-11-17T15:32:33.636Z,57.55
2022-11-17T15:35:08.376Z,63.33
2022-11-17T15:37:41.188Z,54.95
2022-11-17T15:40:19.077Z,53.58
2022-11-17T15:42:55.549Z,54.25
2022-11-17T15:45:29.328Z,56.20
2022-11-17T15:48:03.023Z,54.72
2022-11-17T15:50:36.781Z,68.07
2022-11-17T15:53:09.548Z,66.32
2022-11-17T15:55:42.859Z,54.53
2022-11-17T15:58:16.900Z,59.83
2022-11-17T16:00:49.970Z,57.05
2022-11-17T16:03:22.697Z,60.53
2022-11-17T16:05:55.579Z,58.33
2022-11-17T16:08:28.326Z,55.20
2022-11-17T16:11:01.321Z,52.15
2022-11-17T16:13:34.212Z,50.97
2022-11-17T16:16:08.305Z,53.88
2022-11-17T16:18:41.099Z,54.00
2022-11-17T16:21:15.145Z,108.43
2022-11-17T16:23:51.642Z,105.22
2022-11-17T16:26:26.588Z,76.93
2022-11-17T16:29:00.989Z,54.33
2022-11-17T16:31:36.200Z,64.20
2022-11-17T16:34:15.754Z,57.05
2022-11-17T16:36:48.420Z,59.15
2022-11-17T16:39:21.213Z,51.25
2022-11-17T16:41:55.378Z,100.32
2022-11-17T16:44:28.040Z,64.28
2022-11-17T16:47:00.719Z,64.47
2022-11-17T16:49:35.619Z,84.63
2022-11-17T16:52:08.592Z,67.30
2022-11-17T16:54:43.279Z,64.78
2022-11-17T16:57:18.253Z,63.88
2022-11-17T16:59:52.880Z,68.70
2022-11-17T17:02:26.305Z,59.65
2022-11-17T17:04:58.936Z,61.35
2022-11-17T17:07:33.049Z,71.18
2022-11-17T17:10:08.752Z,65.00
2022-11-17T17:15:14.589Z,62.22
2022-11-17T17:17:47.453Z,57.90
2022-11-17T17:20:20.825Z,72.20
2022-11-17T17:22:56.854Z,69.78
2022-11-17T17:25:33.932Z,64.00
2022-11-17T17:28:06.591Z,63.08
2022-11-17T17:30:41.258Z,63.80
2022-11-17T17:33:15.028Z,80.28
2022-11-17T17:35:47.982Z,77.88
2022-11-17T17:38:20.863Z,69.22
2022-11-17T17:40:53.595Z,61.47
2022-11-17T17:43:26.103Z,69.50
2022-11-17T17:46:02.954Z,72.20
2022-11-17T17:48:37.366Z,118.60
2022-11-17T17:51:14.585Z,87.18
2022-11-17T17:53:51.381Z,67.80
2022-11-17T17:56:25.060Z,77.35
2022-11-17T17:58:58.949Z,79.68
2022-11-17T18:01:34.989Z,99.38
2022-11-17T18:04:15.334Z,97.13
2022-11-17T18:06:49.223Z,87.25
2022-11-17T18:09:22.501Z,73.53
2022-11-17T18:11:55.675Z,97.60
2022-11-17T18:14:28.657Z,77.88
2022-11-17T18:17:01.458Z,69.38
2022-11-17T18:19:34.274Z,68.70
2022-11-17T18:22:07.238Z,73.82
2022-11-17T18:24:40.059Z,66.85
2022-11-17T18:27:12.704Z,69.57
2022-11-17T18:29:46.896Z,70.60
2022-11-17T18:32:19.819Z,65.43
2022-11-17T18:34:52.753Z,71.00
2022-11-17T18:37:25.508Z,73.53
2022-11-17T18:39:58.294Z,84.05
2022-11-17T18:42:32.910Z,78.53
2022-11-17T18:45:05.904Z,77.43
2022-11-17T18:47:38.752Z,75.03
2022-11-17T18:50:11.482Z,73.05
2022-11-17T18:52:44.241Z,73.40
2022-11-17T18:55:17.104Z,81.25
2022-11-17T18:57:49.820Z,76.90
2022-11-17T19:00:23.475Z,74.90
2022-11-17T19:02:56.266Z,75.97
2022-11-17T19:05:29.001Z,65.07
2022-11-17T19:08:01.798Z,69.32
2022-11-17T19:10:34.599Z,69.45
2022-11-17T19:13:07.423Z,78.60
2022-11-17T19:15:40.209Z,77.05
2022-11-17T19:18:13.155Z,73.28
2022-11-17T19:20:46.384Z,77.22
2022-11-17T19:23:19.481Z,74.38
2022-11-17T19:25:52.101Z,77.35
2022-11-17T19:28:24.871Z,87.00
2022-11-17T19:31:02.378Z,76.68
2022-11-17T19:33:36.766Z,88.63
2022-11-17T19:36:13.952Z,81.18
2022-11-17T19:38:50.838Z,82.60
2022-11-17T19:41:26.369Z,92.18
2022-11-17T19:44:02.118Z,80.75
2022-11-17T19:46:36.558Z,82.53
2022-11-17T19:49:12.800Z,84.20
2022-11-17T19:51:45.554Z,80.43
2022-11-17T19:54:18.229Z,80.82
2022-11-17T19:56:50.881Z,83.55
2022-11-17T19:59:23.518Z,82.05
2022-11-17T20:01:56.423Z,83.30
2022-11-17T20:04:29.314Z,100.85
2022-11-17T20:07:01.946Z,82.43
2022-11-17T20:09:35.920Z,86.15
2022-11-17T20:12:08.657Z,83.18
2022-11-17T20:14:41.447Z,86.90
2022-11-17T20:17:14.296Z,87.13
2022-11-17T20:19:46.987Z,93.75
2022-11-17T20:22:19.488Z,100.05
2022-11-17T20:24:52.623Z,90.30
2022-11-17T20:27:26.001Z,89.13
2022-11-17T20:29:59.419Z,87.30
2022-11-17T20:32:32.841Z,83.40
2022-11-17T20:35:06.570Z,94.20
2022-11-17T20:37:39.218Z,100.65
2022-11-17T20:40:12.488Z,111.75
2022-11-17T20:42:45.391Z,94.10
2022-11-17T20:45:18.323Z,92.28
2022-11-17T20:47:51.340Z,87.13
2022-11-17T20:50:24.016Z,90.65
2022-11-17T20:52:56.642Z,76.15
2022-11-17T20:55:29.194Z,88.55
2022-11-17T20:58:01.788Z,93.53
2022-11-17T21:00:35.392Z,95.95
2022-11-17T21:03:08.553Z,90.55
2022-11-17T21:05:41.412Z,86.60
2022-11-17T21:08:14.056Z,87.07
2022-11-17T21:10:46.613Z,79.07
2022-11-17T21:13:19.348Z,89.05
2022-11-17T21:16:12.444Z,83.95
2022-11-17T21:18:47.431Z,98.38
2022-11-17T21:21:20.389Z,91.60
2022-11-17T21:23:54.552Z,96.05
2022-11-17T21:26:28.183Z,91.45
2022-11-17T21:29:06.194Z,86.07
2022-11-17T21:31:40.274Z,92.30
2022-11-17T21:34:16.924Z,93.55
2022-11-17T21:36:49.658Z,84.50
2022-11-17T21:39:22.420Z,87.53
2022-11-17T21:41:55.104Z,96.68
2022-11-17T21:44:28.002Z,105.03
2022-11-17T21:47:01.012Z,109.53
2022-11-17T21:49:33.955Z,113.63
2022-11-17T21:52:07.060Z,118.95
2022-11-17T21:54:39.721Z,151.50
2022-11-17T21:57:12.543Z,119.45
2022-11-17T21:59:46.975Z,113.70
2022-11-17T22:02:19.795Z,119.68
2022-11-17T22:04:52.578Z,114.65
2022-11-17T22:07:25.224Z,123.53
2022-11-17T22:09:57.792Z,133.38
2022-11-17T22:12:30.469Z,136.70
2022-11-17T22:15:07.197Z,124.05
2022-11-17T22:17:43.496Z,127.32
2022-11-17T22:20:16.681Z,122.07
2022-11-17T22:22:54.626Z,133.00
2022-11-17T22:28:20.171Z,149.90
2022-11-17T22:30:53.465Z,156.90
2022-11-17T22:33:26.264Z,161.57
2022-11-17T22:36:00.966Z,163.60
2022-11-17T22:38:33.998Z,165.23
2022-11-17T22:41:08.189Z,175.75
2022-11-17T22:43:40.847Z,148.45
2022-11-17T22:46:13.611Z,166.23
2022-11-17T22:48:46.693Z,166.60
2022-11-17T22:51:35.764Z,177.38
2022-11-17T22:54:09.029Z,183.48
2022-11-17T22:56:41.832Z,177.52
2022-11-17T22:59:14.648Z,171.80
2022-11-17T23:01:47.794Z,163.85
2022-11-17T23:04:20.490Z,162.25
2022-11-17T23:06:53.183Z,147.35
2022-11-17T23:09:25.953Z,155.95
2022-11-17T23:11:58.647Z,160.20
2022-11-17T23:14:31.264Z,143.38
2022-11-17T23:17:04.114Z,177.55
2022-11-17T23:19:36.695Z,166.90
2022-11-17T23:22:09.351Z,158.10
2022-11-17T23:24:42.005Z,157.63
2022-11-17T23:27:14.632Z,154.50
2022-11-17T23:29:47.286Z,152.32
2022-11-17T23:32:20.301Z,150.18
2022-11-17T23:34:52.999Z,162.90
2022-11-17T23:37:25.600Z,157.30
2022-11-17T23:39:58.285Z,159.15
2022-11-17T23:42:32.612Z,179.63
2022-11-17T23:45:07.662Z,173.45
2022-11-17T23:47:40.948Z,151.83
2022-11-17T23:50:13.783Z,154.55
2022-11-17T23:52:46.418Z,170.68
2022-11-17T23:55:19.251Z,157.68
2022-11-17T23:57:53.403Z,144.45
